INFORMAÇÕES METEOROLÓGICAS
METAR FOR SBPL
ADDS - METARS form results

(0312 UTC 19 January 2021)
Data provider http://aviationweather.gov/metar/data/
 
Forecast for: SBPL (PETROLINA AIRPOR, BR)
Text: TAF SBPL 190300Z 1906/2006 14010KT 9999 SCT030 TN23/1908Z TX32/1918Z RMK PHD
Forecast period: 0600 UTC 19 January 2021 to 0600 UTC 20 January 2021
Forecast type: FROM: standard forecast or significant change
Winds: from the SE (140 degrees) at 12 MPH (10 knots; 5.1 m/s)
Visibility: 6 or more miles (10+ km)
Ceiling: at least 12,000 feet AGL
Clouds: scattered clouds at 3000 feet AGL
Weather: no significant weather forecast for this period

 MAPA DO AEROPORTO

 INFORMAÇÕES DA PISTA
Pista 13 Tamanho da pista 9055 ft Largura da pista 148 ft
Elevação da pista 0 ft Ranhura da pista 0 ft Proa da pista 0
Pista 31 Tamanho da pista 9055 ft Largura da pista 148 ft
Elevação da pista 0 ft Ranhura da pista 0 ft Proa da pista 0

 FREQUÊNCIAS DO AEROPORTO
Tipo AFIS Nome RDO Frequência 125.7 MHZ

 AUXÍLIOS DE NAVEGAÇÃO PRÓXIMOS AO AEROPORTO
Tipo VOR-DME Nome Petrolina Frequência 112100 KHZ
Tipo NDB Nome Petrolina Frequência 345 KHZ



Redes oficiais, softwares e parceiros.

                             

2021 Dream Sky Virtual Airlines


Social-bar